sensor_id;sensor_type;location;lat;lon;timestamp;pressure;altitude;pressure_sealevel;temperature;humidity
53960;BME280;39866;48.638;-2.020;2024-02-26T00:00:31;98379.31;;;13.81;100.00
53960;BME280;39866;48.638;-2.020;2024-02-26T00:02:57;98379.69;;;13.76;100.00
53960;BME280;39866;48.638;-2.020;2024-02-26T00:05:22;98379.19;;;13.82;100.00
53960;BME280;39866;48.638;-2.020;2024-02-26T00:07:48;98397.56;;;13.76;100.00
53960;BME280;39866;48.638;-2.020;2024-02-26T00:10:14;98382.09;;;13.79;100.00
53960;BME280;39866;48.638;-2.020;2024-02-26T00:12:40;98394.50;;;13.69;100.00
53960;BME280;39866;48.638;-2.020;2024-02-26T00:15:06;98396.06;;;13.83;100.00
53960;BME280;39866;48.638;-2.020;2024-02-26T00:17:31;98399.97;;;13.90;100.00
53960;BME280;39866;48.638;-2.020;2024-02-26T00:19:57;98397.16;;;13.92;100.00
53960;BME280;39866;48.638;-2.020;2024-02-26T00:22:22;98402.50;;;13.92;100.00
53960;BME280;39866;48.638;-2.020;2024-02-26T00:24:47;98409.56;;;13.81;100.00
53960;BME280;39866;48.638;-2.020;2024-02-26T00:27:13;98406.66;;;13.96;100.00
53960;BME280;39866;48.638;-2.020;2024-02-26T00:29:38;98409.22;;;13.86;100.00
53960;BME280;39866;48.638;-2.020;2024-02-26T00:32:04;98410.56;;;13.80;100.00
53960;BME280;39866;48.638;-2.020;2024-02-26T00:34:29;98411.28;;;13.94;100.00
53960;BME280;39866;48.638;-2.020;2024-02-26T00:36:55;98419.78;;;13.87;100.00
53960;BME280;39866;48.638;-2.020;2024-02-26T00:39:20;98420.16;;;13.94;100.00
53960;BME280;39866;48.638;-2.020;2024-02-26T00:41:45;98413.72;;;13.85;100.00
53960;BME280;39866;48.638;-2.020;2024-02-26T00:44:11;98429.00;;;13.61;100.00
53960;BME280;39866;48.638;-2.020;2024-02-26T00:46:36;98426.84;;;13.77;100.00
53960;BME280;39866;48.638;-2.020;2024-02-26T00:49:02;98423.06;;;13.91;100.00
53960;BME280;39866;48.638;-2.020;2024-02-26T00:51:28;98424.28;;;13.98;100.00
53960;BME280;39866;48.638;-2.020;2024-02-26T00:53:54;98433.50;;;13.83;100.00
53960;BME280;39866;48.638;-2.020;2024-02-26T00:56:19;98430.59;;;13.63;100.00
53960;BME280;39866;48.638;-2.020;2024-02-26T00:58:44;98435.06;;;13.52;100.00
53960;BME280;39866;48.638;-2.020;2024-02-26T01:01:10;98424.88;;;13.68;100.00
53960;BME280;39866;48.638;-2.020;2024-02-26T01:03:35;98432.41;;;13.74;100.00
53960;BME280;39866;48.638;-2.020;2024-02-26T01:06:00;98434.75;;;13.68;100.00
53960;BME280;39866;48.638;-2.020;2024-02-26T01:08:26;98431.94;;;13.80;100.00
53960;BME280;39866;48.638;-2.020;2024-02-26T01:10:51;98432.91;;;13.79;100.00
53960;BME280;39866;48.638;-2.020;2024-02-26T01:13:16;98438.59;;;13.75;100.00
53960;BME280;39866;48.638;-2.020;2024-02-26T01:15:41;98448.25;;;13.31;100.00
53960;BME280;39866;48.638;-2.020;2024-02-26T01:18:09;98443.41;;;13.12;100.00
53960;BME280;39866;48.638;-2.020;2024-02-26T01:20:34;98469.53;;;12.48;100.00
53960;BME280;39866;48.638;-2.020;2024-02-26T01:22:59;98462.78;;;12.18;100.00
53960;BME280;39866;48.638;-2.020;2024-02-26T01:25:24;98484.09;;;12.31;100.00
53960;BME280;39866;48.638;-2.020;2024-02-26T01:27:50;98478.94;;;12.53;100.00
53960;BME280;39866;48.638;-2.020;2024-02-26T01:30:15;98479.59;;;12.31;100.00
53960;BME280;39866;48.638;-2.020;2024-02-26T01:32:42;98479.28;;;12.36;100.00
53960;BME280;39866;48.638;-2.020;2024-02-26T01:35:08;98489.31;;;12.20;100.00
53960;BME280;39866;48.638;-2.020;2024-02-26T01:37:36;98500.63;;;12.23;100.00
53960;BME280;39866;48.638;-2.020;2024-02-26T01:40:02;98504.72;;;12.29;100.00
53960;BME280;39866;48.638;-2.020;2024-02-26T01:42:32;98508.44;;;12.26;100.00
53960;BME280;39866;48.638;-2.020;2024-02-26T01:44:58;98503.75;;;12.17;100.00
53960;BME280;39866;48.638;-2.020;2024-02-26T01:47:23;98518.16;;;12.02;100.00
53960;BME280;39866;48.638;-2.020;2024-02-26T01:49:50;98533.31;;;12.14;100.00
53960;BME280;39866;48.638;-2.020;2024-02-26T01:52:15;98520.09;;;12.12;100.00
53960;BME280;39866;48.638;-2.020;2024-02-26T01:54:42;98529.63;;;11.64;100.00
53960;BME280;39866;48.638;-2.020;2024-02-26T01:57:10;98530.69;;;11.74;100.00
53960;BME280;39866;48.638;-2.020;2024-02-26T01:59:36;98529.09;;;11.72;100.00
53960;BME280;39866;48.638;-2.020;2024-02-26T02:02:03;98532.47;;;11.48;100.00
53960;BME280;39866;48.638;-2.020;2024-02-26T02:04:30;98547.34;;;11.78;100.00
53960;BME280;39866;48.638;-2.020;2024-02-26T02:06:57;98549.16;;;11.77;100.00
53960;BME280;39866;48.638;-2.020;2024-02-26T02:09:23;98561.50;;;11.78;100.00
53960;BME280;39866;48.638;-2.020;2024-02-26T02:11:49;98566.00;;;11.78;100.00
53960;BME280;39866;48.638;-2.020;2024-02-26T02:14:15;98564.75;;;11.83;100.00
53960;BME280;39866;48.638;-2.020;2024-02-26T02:16:40;98564.38;;;11.75;100.00
53960;BME280;39866;48.638;-2.020;2024-02-26T02:19:05;98570.47;;;11.77;100.00
53960;BME280;39866;48.638;-2.020;2024-02-26T02:21:31;98570.00;;;11.85;100.00
53960;BME280;39866;48.638;-2.020;2024-02-26T02:23:56;98581.81;;;11.54;100.00
53960;BME280;39866;48.638;-2.020;2024-02-26T02:26:22;98595.56;;;11.87;100.00
53960;BME280;39866;48.638;-2.020;2024-02-26T02:28:48;98597.44;;;11.73;100.00
53960;BME280;39866;48.638;-2.020;2024-02-26T02:31:14;98608.75;;;11.76;100.00
53960;BME280;39866;48.638;-2.020;2024-02-26T02:33:40;98607.69;;;11.79;100.00
53960;BME280;39866;48.638;-2.020;2024-02-26T02:36:05;98615.38;;;11.83;100.00
53960;BME280;39866;48.638;-2.020;2024-02-26T02:38:35;98618.13;;;11.69;100.00
53960;BME280;39866;48.638;-2.020;2024-02-26T02:41:00;98626.31;;;11.66;100.00
53960;BME280;39866;48.638;-2.020;2024-02-26T02:43:25;98615.94;;;11.61;100.00
53960;BME280;39866;48.638;-2.020;2024-02-26T02:45:51;98648.69;;;11.36;100.00
53960;BME280;39866;48.638;-2.020;2024-02-26T02:48:16;98636.69;;;11.44;100.00
53960;BME280;39866;48.638;-2.020;2024-02-26T02:50:42;98653.78;;;11.12;100.00
53960;BME280;39866;48.638;-2.020;2024-02-26T02:53:07;98650.28;;;11.12;100.00
53960;BME280;39866;48.638;-2.020;2024-02-26T02:55:32;98664.84;;;10.92;100.00
53960;BME280;39866;48.638;-2.020;2024-02-26T02:57:58;98669.97;;;10.81;100.00
53960;BME280;39866;48.638;-2.020;2024-02-26T03:00:23;98667.78;;;11.02;100.00
53960;BME280;39866;48.638;-2.020;2024-02-26T03:02:49;98671.59;;;10.83;100.00
53960;BME280;39866;48.638;-2.020;2024-02-26T03:05:15;98686.31;;;10.60;100.00
53960;BME280;39866;48.638;-2.020;2024-02-26T03:07:40;98690.59;;;10.49;100.00
53960;BME280;39866;48.638;-2.020;2024-02-26T03:10:06;98689.84;;;10.61;100.00
53960;BME280;39866;48.638;-2.020;2024-02-26T03:12:32;98684.34;;;10.50;100.00
53960;BME280;39866;48.638;-2.020;2024-02-26T03:14:57;98700.47;;;10.47;100.00
53960;BME280;39866;48.638;-2.020;2024-02-26T03:17:22;98709.72;;;10.55;100.00
53960;BME280;39866;48.638;-2.020;2024-02-26T03:19:49;98703.88;;;10.49;100.00
53960;BME280;39866;48.638;-2.020;2024-02-26T03:22:18;98713.78;;;10.47;100.00
53960;BME280;39866;48.638;-2.020;2024-02-26T03:24:43;98755.00;;;10.39;100.00
53960;BME280;39866;48.638;-2.020;2024-02-26T03:27:09;98724.03;;;10.53;100.00
53960;BME280;39866;48.638;-2.020;2024-02-26T03:29:35;98743.06;;;10.61;100.00
53960;BME280;39866;48.638;-2.020;2024-02-26T03:32:00;98734.66;;;10.38;100.00
53960;BME280;39866;48.638;-2.020;2024-02-26T03:34:26;98739.59;;;10.45;100.00
53960;BME280;39866;48.638;-2.020;2024-02-26T03:36:52;98735.63;;;10.52;100.00
53960;BME280;39866;48.638;-2.020;2024-02-26T03:39:17;98732.63;;;10.58;100.00
53960;BME280;39866;48.638;-2.020;2024-02-26T03:41:42;98731.22;;;10.36;100.00
53960;BME280;39866;48.638;-2.020;2024-02-26T03:44:08;98743.31;;;10.42;100.00
53960;BME280;39866;48.638;-2.020;2024-02-26T03:46:33;98739.75;;;10.57;100.00
53960;BME280;39866;48.638;-2.020;2024-02-26T03:48:58;98760.88;;;10.45;100.00
53960;BME280;39866;48.638;-2.020;2024-02-26T03:51:24;98741.13;;;10.49;100.00
53960;BME280;39866;48.638;-2.020;2024-02-26T03:53:49;98782.38;;;10.41;100.00
53960;BME280;39866;48.638;-2.020;2024-02-26T03:56:14;98770.22;;;10.52;100.00
53960;BME280;39866;48.638;-2.020;2024-02-26T03:58:40;98753.13;;;10.41;100.00
53960;BME280;39866;48.638;-2.020;2024-02-26T04:01:08;98779.22;;;10.35;100.00
53960;BME280;39866;48.638;-2.020;2024-02-26T04:03:34;98781.94;;;10.63;100.00
53960;BME280;39866;48.638;-2.020;2024-02-26T04:06:00;98816.00;;;10.43;100.00
53960;BME280;39866;48.638;-2.020;2024-02-26T04:08:25;98795.88;;;10.53;100.00
53960;BME280;39866;48.638;-2.020;2024-02-26T04:10:50;98805.06;;;10.33;100.00
53960;BME280;39866;48.638;-2.020;2024-02-26T04:13:17;98806.84;;;10.62;100.00
53960;BME280;39866;48.638;-2.020;2024-02-26T04:15:42;98797.66;;;10.22;100.00
53960;BME280;39866;48.638;-2.020;2024-02-26T04:18:08;98810.00;;;10.23;100.00
53960;BME280;39866;48.638;-2.020;2024-02-26T04:20:33;98803.81;;;10.23;100.00
53960;BME280;39866;48.638;-2.020;2024-02-26T04:22:58;98845.97;;;10.14;100.00
53960;BME280;39866;48.638;-2.020;2024-02-26T04:25:24;98834.19;;;10.18;100.00
53960;BME280;39866;48.638;-2.020;2024-02-26T04:27:49;98833.63;;;10.29;100.00
53960;BME280;39866;48.638;-2.020;2024-02-26T04:30:15;98845.38;;;10.41;100.00
53960;BME280;39866;48.638;-2.020;2024-02-26T04:32:40;98822.88;;;9.99;100.00
53960;BME280;39866;48.638;-2.020;2024-02-26T04:35:05;98873.13;;;10.20;100.00
53960;BME280;39866;48.638;-2.020;2024-02-26T04:37:31;98883.97;;;10.16;100.00
53960;BME280;39866;48.638;-2.020;2024-02-26T04:40:00;98880.88;;;10.08;100.00
53960;BME280;39866;48.638;-2.020;2024-02-26T04:42:26;98887.28;;;10.20;100.00
53960;BME280;39866;48.638;-2.020;2024-02-26T04:44:51;98900.28;;;10.26;100.00
53960;BME280;39866;48.638;-2.020;2024-02-26T04:47:17;98917.09;;;10.27;100.00
53960;BME280;39866;48.638;-2.020;2024-02-26T04:49:42;98926.41;;;10.18;100.00
53960;BME280;39866;48.638;-2.020;2024-02-26T04:52:07;98934.50;;;10.16;100.00
53960;BME280;39866;48.638;-2.020;2024-02-26T04:54:33;98941.56;;;10.33;100.00
53960;BME280;39866;48.638;-2.020;2024-02-26T04:56:58;98957.47;;;10.17;100.00
53960;BME280;39866;48.638;-2.020;2024-02-26T04:59:24;98997.41;;;10.16;100.00
53960;BME280;39866;48.638;-2.020;2024-02-26T05:01:49;98970.84;;;10.16;100.00
53960;BME280;39866;48.638;-2.020;2024-02-26T05:04:16;98985.16;;;9.98;100.00
53960;BME280;39866;48.638;-2.020;2024-02-26T05:06:42;98999.75;;;10.06;100.00
53960;BME280;39866;48.638;-2.020;2024-02-26T05:09:07;98989.84;;;9.92;100.00
53960;BME280;39866;48.638;-2.020;2024-02-26T05:11:33;99006.69;;;10.09;100.00
53960;BME280;39866;48.638;-2.020;2024-02-26T05:13:58;99009.97;;;10.14;100.00
53960;BME280;39866;48.638;-2.020;2024-02-26T05:16:25;99015.03;;;10.18;100.00
53960;BME280;39866;48.638;-2.020;2024-02-26T05:18:52;99030.63;;;10.09;100.00
53960;BME280;39866;48.638;-2.020;2024-02-26T05:21:17;99023.06;;;10.01;100.00
53960;BME280;39866;48.638;-2.020;2024-02-26T05:23:43;99049.69;;;10.17;100.00
53960;BME280;39866;48.638;-2.020;2024-02-26T05:26:09;99055.00;;;10.17;100.00
53960;BME280;39866;48.638;-2.020;2024-02-26T05:28:34;99058.31;;;10.05;100.00
53960;BME280;39866;48.638;-2.020;2024-02-26T05:31:00;99081.88;;;10.28;100.00
53960;BME280;39866;48.638;-2.020;2024-02-26T05:33:25;99058.38;;;10.21;100.00
53960;BME280;39866;48.638;-2.020;2024-02-26T05:35:50;99066.41;;;10.19;100.00
53960;BME280;39866;48.638;-2.020;2024-02-26T05:38:16;99077.38;;;10.13;100.00
53960;BME280;39866;48.638;-2.020;2024-02-26T05:40:41;99089.88;;;10.11;100.00
53960;BME280;39866;48.638;-2.020;2024-02-26T05:43:06;99097.53;;;10.34;100.00
53960;BME280;39866;48.638;-2.020;2024-02-26T05:45:32;99113.56;;;10.15;100.00
53960;BME280;39866;48.638;-2.020;2024-02-26T05:47:58;99132.38;;;10.12;100.00
53960;BME280;39866;48.638;-2.020;2024-02-26T05:50:23;99139.91;;;10.20;100.00
53960;BME280;39866;48.638;-2.020;2024-02-26T05:52:48;99141.44;;;10.08;100.00
53960;BME280;39866;48.638;-2.020;2024-02-26T05:55:14;99145.66;;;10.30;100.00
53960;BME280;39866;48.638;-2.020;2024-02-26T05:57:39;99163.47;;;10.10;100.00
53960;BME280;39866;48.638;-2.020;2024-02-26T06:00:05;99130.81;;;10.08;100.00
53960;BME280;39866;48.638;-2.020;2024-02-26T06:02:31;99165.69;;;10.02;100.00
53960;BME280;39866;48.638;-2.020;2024-02-26T06:04:56;99174.44;;;10.22;100.00
53960;BME280;39866;48.638;-2.020;2024-02-26T06:07:22;99172.06;;;10.15;100.00
53960;BME280;39866;48.638;-2.020;2024-02-26T06:09:47;99172.56;;;10.06;100.00
53960;BME280;39866;48.638;-2.020;2024-02-26T06:12:13;99203.97;;;10.15;100.00
53960;BME280;39866;48.638;-2.020;2024-02-26T06:14:39;99207.97;;;10.07;100.00
53960;BME280;39866;48.638;-2.020;2024-02-26T06:17:04;99212.69;;;10.02;100.00
53960;BME280;39866;48.638;-2.020;2024-02-26T06:19:29;99225.72;;;10.24;100.00
53960;BME280;39866;48.638;-2.020;2024-02-26T06:21:55;99228.78;;;10.16;100.00
53960;BME280;39866;48.638;-2.020;2024-02-26T06:24:20;99234.03;;;10.17;100.00
53960;BME280;39866;48.638;-2.020;2024-02-26T06:26:47;99230.19;;;10.23;100.00
53960;BME280;39866;48.638;-2.020;2024-02-26T06:29:13;99264.50;;;9.93;100.00
53960;BME280;39866;48.638;-2.020;2024-02-26T06:31:38;99276.72;;;10.14;100.00
53960;BME280;39866;48.638;-2.020;2024-02-26T06:34:03;99275.06;;;10.12;100.00
53960;BME280;39866;48.638;-2.020;2024-02-26T06:36:29;99284.84;;;9.94;100.00
53960;BME280;39866;48.638;-2.020;2024-02-26T06:38:56;99286.50;;;9.97;100.00
53960;BME280;39866;48.638;-2.020;2024-02-26T06:41:21;99304.06;;;9.99;100.00
53960;BME280;39866;48.638;-2.020;2024-02-26T06:43:52;99288.50;;;9.91;100.00
53960;BME280;39866;48.638;-2.020;2024-02-26T06:46:17;99336.78;;;10.01;100.00
53960;BME280;39866;48.638;-2.020;2024-02-26T06:48:43;99342.00;;;10.03;100.00
53960;BME280;39866;48.638;-2.020;2024-02-26T06:51:08;99342.69;;;9.89;100.00
53960;BME280;39866;48.638;-2.020;2024-02-26T06:53:33;99358.91;;;10.02;100.00
53960;BME280;39866;48.638;-2.020;2024-02-26T06:55:58;99361.78;;;9.97;100.00
53960;BME280;39866;48.638;-2.020;2024-02-26T06:58:24;99314.78;;;9.98;100.00
53960;BME280;39866;48.638;-2.020;2024-02-26T07:00:49;99367.59;;;10.05;100.00
53960;BME280;39866;48.638;-2.020;2024-02-26T07:03:14;99392.75;;;10.17;100.00
53960;BME280;39866;48.638;-2.020;2024-02-26T07:05:40;99401.25;;;10.25;100.00
53960;BME280;39866;48.638;-2.020;2024-02-26T07:08:06;99391.09;;;10.14;100.00
53960;BME280;39866;48.638;-2.020;2024-02-26T07:10:31;99422.63;;;10.22;100.00
53960;BME280;39866;48.638;-2.020;2024-02-26T07:12:56;99442.09;;;10.04;100.00
53960;BME280;39866;48.638;-2.020;2024-02-26T07:15:22;99436.66;;;10.07;100.00
53960;BME280;39866;48.638;-2.020;2024-02-26T07:17:47;99431.78;;;10.16;100.00
53960;BME280;39866;48.638;-2.020;2024-02-26T07:20:14;99442.47;;;10.15;100.00
53960;BME280;39866;48.638;-2.020;2024-02-26T07:22:39;99440.84;;;10.12;100.00
53960;BME280;39866;48.638;-2.020;2024-02-26T07:25:05;99441.84;;;10.10;100.00
53960;BME280;39866;48.638;-2.020;2024-02-26T07:27:33;99474.16;;;10.20;100.00
53960;BME280;39866;48.638;-2.020;2024-02-26T07:29:58;99466.53;;;10.12;100.00
53960;BME280;39866;48.638;-2.020;2024-02-26T07:32:23;99494.28;;;10.06;100.00
53960;BME280;39866;48.638;-2.020;2024-02-26T07:34:49;99487.81;;;10.12;100.00
53960;BME280;39866;48.638;-2.020;2024-02-26T07:37:14;99510.63;;;9.78;100.00
53960;BME280;39866;48.638;-2.020;2024-02-26T07:39:39;99505.91;;;9.85;100.00
53960;BME280;39866;48.638;-2.020;2024-02-26T07:42:05;99508.97;;;10.15;100.00
53960;BME280;39866;48.638;-2.020;2024-02-26T07:44:30;99569.50;;;9.89;100.00
53960;BME280;39866;48.638;-2.020;2024-02-26T07:46:55;99545.31;;;10.14;100.00
53960;BME280;39866;48.638;-2.020;2024-02-26T07:49:20;99550.22;;;10.05;100.00
53960;BME280;39866;48.638;-2.020;2024-02-26T07:51:46;99556.25;;;10.08;100.00
53960;BME280;39866;48.638;-2.020;2024-02-26T07:54:11;99587.03;;;10.14;100.00
53960;BME280;39866;48.638;-2.020;2024-02-26T07:56:37;99549.91;;;10.11;100.00
53960;BME280;39866;48.638;-2.020;2024-02-26T07:59:03;99582.75;;;10.30;100.00
53960;BME280;39866;48.638;-2.020;2024-02-26T08:01:28;99610.75;;;10.18;100.00
53960;BME280;39866;48.638;-2.020;2024-02-26T08:03:54;99593.75;;;10.02;100.00
53960;BME280;39866;48.638;-2.020;2024-02-26T08:06:19;99588.22;;;10.07;100.00
53960;BME280;39866;48.638;-2.020;2024-02-26T08:08:44;99586.38;;;10.09;100.00
53960;BME280;39866;48.638;-2.020;2024-02-26T08:11:09;99631.41;;;10.12;100.00
53960;BME280;39866;48.638;-2.020;2024-02-26T08:13:35;99615.94;;;10.22;100.00
53960;BME280;39866;48.638;-2.020;2024-02-26T08:16:01;99623.97;;;10.20;100.00
53960;BME280;39866;48.638;-2.020;2024-02-26T08:18:26;99610.44;;;10.26;100.00
53960;BME280;39866;48.638;-2.020;2024-02-26T08:20:51;99679.47;;;10.29;100.00
53960;BME280;39866;48.638;-2.020;2024-02-26T08:23:17;99682.38;;;10.44;100.00
53960;BME280;39866;48.638;-2.020;2024-02-26T08:25:42;99652.88;;;10.29;100.00
53960;BME280;39866;48.638;-2.020;2024-02-26T08:28:08;99654.81;;;10.24;100.00
53960;BME280;39866;48.638;-2.020;2024-02-26T08:30:33;99711.97;;;10.36;100.00
53960;BME280;39866;48.638;-2.020;2024-02-26T08:32:59;99701.84;;;10.24;100.00
53960;BME280;39866;48.638;-2.020;2024-02-26T08:35:24;99699.69;;;10.33;100.00
53960;BME280;39866;48.638;-2.020;2024-02-26T08:37:50;99725.16;;;10.39;100.00
53960;BME280;39866;48.638;-2.020;2024-02-26T08:40:15;99695.84;;;10.18;100.00
53960;BME280;39866;48.638;-2.020;2024-02-26T08:42:41;99726.78;;;10.21;100.00
53960;BME280;39866;48.638;-2.020;2024-02-26T08:45:07;99758.00;;;10.16;100.00
53960;BME280;39866;48.638;-2.020;2024-02-26T08:47:33;99726.13;;;10.36;100.00
53960;BME280;39866;48.638;-2.020;2024-02-26T08:49:58;99742.72;;;10.43;100.00
53960;BME280;39866;48.638;-2.020;2024-02-26T08:52:24;99750.00;;;10.17;100.00
53960;BME280;39866;48.638;-2.020;2024-02-26T08:54:49;99737.69;;;10.15;100.00
53960;BME280;39866;48.638;-2.020;2024-02-26T08:57:15;99768.38;;;10.02;100.00
53960;BME280;39866;48.638;-2.020;2024-02-26T08:59:40;99753.75;;;10.12;100.00
53960;BME280;39866;48.638;-2.020;2024-02-26T09:02:07;99803.19;;;10.17;100.00
53960;BME280;39866;48.638;-2.020;2024-02-26T09:04:34;99783.91;;;10.12;100.00
53960;BME280;39866;48.638;-2.020;2024-02-26T09:07:00;99827.00;;;9.99;100.00
53960;BME280;39866;48.638;-2.020;2024-02-26T09:09:26;99798.94;;;10.13;100.00
53960;BME280;39866;48.638;-2.020;2024-02-26T09:11:51;99827.13;;;9.96;100.00
53960;BME280;39866;48.638;-2.020;2024-02-26T09:14:17;99865.84;;;9.81;100.00
53960;BME280;39866;48.638;-2.020;2024-02-26T09:16:43;99889.78;;;10.03;100.00
53960;BME280;39866;48.638;-2.020;2024-02-26T09:19:08;99888.25;;;9.97;100.00
53960;BME280;39866;48.638;-2.020;2024-02-26T09:21:33;99864.50;;;9.92;100.00
53960;BME280;39866;48.638;-2.020;2024-02-26T09:23:59;99903.06;;;10.03;100.00
53960;BME280;39866;48.638;-2.020;2024-02-26T09:26:24;99900.22;;;9.85;100.00
53960;BME280;39866;48.638;-2.020;2024-02-26T09:28:49;99864.03;;;9.81;100.00
53960;BME280;39866;48.638;-2.020;2024-02-26T09:31:15;99888.41;;;9.92;100.00
53960;BME280;39866;48.638;-2.020;2024-02-26T09:33:42;99931.28;;;10.07;100.00
53960;BME280;39866;48.638;-2.020;2024-02-26T09:36:07;99900.78;;;9.93;100.00
53960;BME280;39866;48.638;-2.020;2024-02-26T09:38:34;99922.06;;;9.93;100.00
53960;BME280;39866;48.638;-2.020;2024-02-26T09:41:03;99942.34;;;9.96;100.00
53960;BME280;39866;48.638;-2.020;2024-02-26T09:43:34;99937.72;;;10.23;100.00
53960;BME280;39866;48.638;-2.020;2024-02-26T09:46:00;99932.28;;;10.04;100.00
53960;BME280;39866;48.638;-2.020;2024-02-26T09:48:26;99934.75;;;10.09;100.00
53960;BME280;39866;48.638;-2.020;2024-02-26T09:50:53;99949.84;;;10.08;100.00
53960;BME280;39866;48.638;-2.020;2024-02-26T09:53:20;99916.81;;;9.92;100.00
53960;BME280;39866;48.638;-2.020;2024-02-26T09:55:46;99952.56;;;9.83;100.00
53960;BME280;39866;48.638;-2.020;2024-02-26T09:58:12;99966.03;;;10.02;100.00
53960;BME280;39866;48.638;-2.020;2024-02-26T10:00:47;99981.34;;;9.96;100.00
53960;BME280;39866;48.638;-2.020;2024-02-26T10:03:16;99971.25;;;10.05;100.00
53960;BME280;39866;48.638;-2.020;2024-02-26T10:05:43;99979.91;;;10.10;100.00
53960;BME280;39866;48.638;-2.020;2024-02-26T10:08:09;100014.06;;;9.98;100.00
53960;BME280;39866;48.638;-2.020;2024-02-26T10:10:36;100009.69;;;9.97;100.00
53960;BME280;39866;48.638;-2.020;2024-02-26T10:13:03;100011.81;;;9.87;100.00
53960;BME280;39866;48.638;-2.020;2024-02-26T10:15:34;100029.44;;;9.89;100.00
53960;BME280;39866;48.638;-2.020;2024-02-26T10:17:59;100030.13;;;9.95;100.00
53960;BME280;39866;48.638;-2.020;2024-02-26T10:20:24;100029.00;;;10.02;100.00
53960;BME280;39866;48.638;-2.020;2024-02-26T10:22:51;100037.81;;;9.79;100.00
53960;BME280;39866;48.638;-2.020;2024-02-26T10:25:17;100043.50;;;10.16;100.00
53960;BME280;39866;48.638;-2.020;2024-02-26T10:27:43;100056.91;;;10.13;100.00
53960;BME280;39866;48.638;-2.020;2024-02-26T10:30:21;100045.94;;;10.23;100.00
53960;BME280;39866;48.638;-2.020;2024-02-26T10:32:48;100065.13;;;9.84;100.00
53960;BME280;39866;48.638;-2.020;2024-02-26T10:35:15;100079.16;;;10.11;100.00
53960;BME280;39866;48.638;-2.020;2024-02-26T10:37:41;100100.28;;;9.92;100.00
53960;BME280;39866;48.638;-2.020;2024-02-26T10:40:11;100112.72;;;10.15;100.00
53960;BME280;39866;48.638;-2.020;2024-02-26T10:42:36;100119.31;;;10.05;100.00
53960;BME280;39866;48.638;-2.020;2024-02-26T10:45:03;100128.31;;;10.01;100.00
53960;BME280;39866;48.638;-2.020;2024-02-26T10:47:30;100091.19;;;9.98;100.00
53960;BME280;39866;48.638;-2.020;2024-02-26T10:49:56;100130.66;;;9.85;100.00
53960;BME280;39866;48.638;-2.020;2024-02-26T10:52:22;100129.06;;;9.79;100.00
53960;BME280;39866;48.638;-2.020;2024-02-26T10:54:56;100096.00;;;9.88;100.00
53960;BME280;39866;48.638;-2.020;2024-02-26T10:57:23;100099.13;;;9.74;100.00
53960;BME280;39866;48.638;-2.020;2024-02-26T10:59:51;100130.03;;;10.02;100.00
53960;BME280;39866;48.638;-2.020;2024-02-26T11:02:17;100117.03;;;9.69;100.00
53960;BME280;39866;48.638;-2.020;2024-02-26T11:04:43;100111.19;;;9.84;100.00
53960;BME280;39866;48.638;-2.020;2024-02-26T11:07:09;100151.75;;;9.89;100.00
53960;BME280;39866;48.638;-2.020;2024-02-26T11:09:35;100150.56;;;9.98;100.00
53960;BME280;39866;48.638;-2.020;2024-02-26T11:12:02;100141.19;;;10.13;100.00
53960;BME280;39866;48.638;-2.020;2024-02-26T11:14:29;100170.22;;;9.94;100.00
53960;BME280;39866;48.638;-2.020;2024-02-26T11:16:55;100143.84;;;10.13;100.00
53960;BME280;39866;48.638;-2.020;2024-02-26T11:19:21;100201.25;;;9.93;100.00
53960;BME280;39866;48.638;-2.020;2024-02-26T11:21:47;100187.53;;;9.79;100.00
53960;BME280;39866;48.638;-2.020;2024-02-26T11:24:14;100203.22;;;9.87;100.00
53960;BME280;39866;48.638;-2.020;2024-02-26T11:29:16;100233.50;;;10.09;100.00
53960;BME280;39866;48.638;-2.020;2024-02-26T11:31:42;100210.50;;;10.08;100.00
53960;BME280;39866;48.638;-2.020;2024-02-26T11:34:09;100239.16;;;10.00;100.00
53960;BME280;39866;48.638;-2.020;2024-02-26T11:36:36;100240.94;;;10.26;100.00
53960;BME280;39866;48.638;-2.020;2024-02-26T11:39:04;100242.66;;;10.01;100.00
53960;BME280;39866;48.638;-2.020;2024-02-26T11:41:29;100247.59;;;10.11;100.00
53960;BME280;39866;48.638;-2.020;2024-02-26T11:44:01;100263.53;;;10.13;100.00
53960;BME280;39866;48.638;-2.020;2024-02-26T11:46:32;100270.41;;;10.18;100.00
53960;BME280;39866;48.638;-2.020;2024-02-26T11:51:55;100280.09;;;9.95;100.00
53960;BME280;39866;48.638;-2.020;2024-02-26T11:57:39;100276.78;;;9.88;100.00
53960;BME280;39866;48.638;-2.020;2024-02-26T12:00:11;100336.56;;;10.03;100.00
53960;BME280;39866;48.638;-2.020;2024-02-26T12:02:46;100277.28;;;9.99;100.00
53960;BME280;39866;48.638;-2.020;2024-02-26T12:05:21;100308.06;;;10.06;100.00
53960;BME280;39866;48.638;-2.020;2024-02-26T12:08:04;100312.72;;;10.00;100.00
53960;BME280;39866;48.638;-2.020;2024-02-26T12:10:33;100329.97;;;10.14;100.00
53960;BME280;39866;48.638;-2.020;2024-02-26T12:13:10;100333.81;;;9.78;100.00
53960;BME280;39866;48.638;-2.020;2024-02-26T12:15:41;100350.16;;;9.93;100.00
53960;BME280;39866;48.638;-2.020;2024-02-26T12:18:08;100354.00;;;9.83;100.00
53960;BME280;39866;48.638;-2.020;2024-02-26T12:20:34;100352.81;;;9.93;100.00
53960;BME280;39866;48.638;-2.020;2024-02-26T12:23:02;100328.56;;;10.03;100.00
53960;BME280;39866;48.638;-2.020;2024-02-26T12:25:29;100340.78;;;9.82;100.00
53960;BME280;39866;48.638;-2.020;2024-02-26T12:27:55;100362.91;;;9.82;100.00
53960;BME280;39866;48.638;-2.020;2024-02-26T12:30:23;100347.69;;;9.87;100.00
53960;BME280;39866;48.638;-2.020;2024-02-26T12:32:51;100356.19;;;9.99;100.00
53960;BME280;39866;48.638;-2.020;2024-02-26T12:35:17;100340.63;;;9.86;100.00
53960;BME280;39866;48.638;-2.020;2024-02-26T12:37:44;100357.34;;;9.90;100.00
53960;BME280;39866;48.638;-2.020;2024-02-26T12:40:10;100373.06;;;9.98;100.00
53960;BME280;39866;48.638;-2.020;2024-02-26T12:42:36;100376.44;;;10.03;100.00